createdAt,value
2023-04-11T00:01:32.362Z,99999.06
2023-04-11T00:05:35.703Z,99968.97
2023-04-11T00:09:38.697Z,99982.19
2023-04-11T00:13:42.884Z,99988.72
2023-04-11T00:17:47.370Z,99979.28
2023-04-11T00:21:51.185Z,99981.72
2023-04-11T00:25:54.262Z,99980.34
2023-04-11T00:29:58.188Z,99990.22
2023-04-11T00:34:02.754Z,99972.91
2023-04-11T00:38:07.771Z,99976.25
2023-04-11T00:42:10.906Z,99993.44
2023-04-11T00:46:14.969Z,99987.19
2023-04-11T00:50:22.278Z,99987.56
2023-04-11T00:54:29.982Z,99983.56
2023-04-11T00:58:34.635Z,99983.69
2023-04-11T01:02:38.733Z,99970.72
2023-04-11T01:06:44.733Z,99968.22
2023-04-11T01:10:48.022Z,99974.34
2023-04-11T01:14:51.085Z,99963.66
2023-04-11T01:18:54.257Z,99970.63
2023-04-11T01:23:00.499Z,99968.53
2023-04-11T01:27:04.952Z,99971.94
2023-04-11T01:31:08.565Z,99968.25
2023-04-11T01:35:13.187Z,99951.66
2023-04-11T01:39:16.767Z,99965.50
2023-04-11T01:43:21.416Z,99988.25
2023-04-11T01:47:26.890Z,99990.81
2023-04-11T01:51:30.150Z,99991.69
2023-04-11T01:55:33.216Z,99996.53
2023-04-11T01:59:37.625Z,99988.78
2023-04-11T02:03:41.784Z,99989.09
2023-04-11T02:07:45.196Z,99996.50
2023-04-11T02:11:53.739Z,100006.22
2023-04-11T02:15:58.088Z,100002.44
2023-04-11T02:20:06.232Z,100008.97
2023-04-11T02:24:09.311Z,100006.47
2023-04-11T02:28:12.320Z,100012.13
2023-04-11T02:32:16.741Z,100009.78
2023-04-11T02:36:22.287Z,100016.50
2023-04-11T02:40:25.302Z,100021.75
2023-04-11T02:44:30.953Z,100026.84
2023-04-11T02:48:36.723Z,100033.59
2023-04-11T02:52:42.212Z,100035.28
2023-04-11T02:56:46.889Z,100038.88
2023-04-11T03:00:50.697Z,100037.81
2023-04-11T03:04:55.416Z,100030.25
2023-04-11T03:08:58.744Z,100039.09
2023-04-11T03:13:01.880Z,100032.78
2023-04-11T03:17:05.581Z,100024.41
2023-04-11T03:21:11.658Z,100023.97
2023-04-11T03:25:19.430Z,100022.91
2023-04-11T03:29:24.708Z,100041.16
2023-04-11T03:33:39.963Z,100035.03
2023-04-11T03:37:44.307Z,100054.59
2023-04-11T03:41:47.412Z,100054.16
2023-04-11T03:45:51.710Z,100059.22
2023-04-11T03:50:08.290Z,100071.81
2023-04-11T03:54:19.332Z,100072.25
2023-04-11T03:58:22.527Z,100075.84
2023-04-11T04:02:26.636Z,100077.31
2023-04-11T04:06:29.844Z,100078.38
2023-04-11T04:10:35.999Z,100079.44
2023-04-11T04:14:39.998Z,100079.84
2023-04-11T04:18:43.435Z,100073.34
2023-04-11T04:22:47.860Z,100085.31
2023-04-11T04:26:57.948Z,100089.72
2023-04-11T04:31:25.797Z,100091.41
2023-04-11T04:35:37.448Z,100101.72
2023-04-11T04:39:42.123Z,100094.16
2023-04-11T04:43:50.029Z,100104.66
2023-04-11T04:47:59.736Z,100130.47
2023-04-11T04:52:03.306Z,100117.69
2023-04-11T04:56:07.272Z,100118.31
2023-04-11T05:00:16.802Z,100099.00
2023-04-11T05:04:22.957Z,100115.56
2023-04-11T05:08:30.166Z,100126.50
2023-04-11T05:12:37.079Z,100128.41
2023-04-11T05:16:45.058Z,100137.00
2023-04-11T05:20:48.769Z,100148.75
2023-04-11T05:24:58.021Z,100140.13
2023-04-11T05:29:02.492Z,100144.53
2023-04-11T05:33:07.216Z,100151.25
2023-04-11T05:37:10.588Z,100151.69
2023-04-11T05:41:13.721Z,100152.53
2023-04-11T05:45:16.943Z,100162.59
2023-04-11T05:49:21.414Z,100169.72
2023-04-11T05:53:25.276Z,100177.91
2023-04-11T05:57:28.391Z,100175.19
2023-04-11T06:01:32.114Z,100176.41
2023-04-11T06:05:37.061Z,100179.38
2023-04-11T06:09:42.087Z,100189.88
2023-04-11T06:13:45.088Z,100191.56
2023-04-11T06:17:48.562Z,100198.69
2023-04-11T06:21:53.039Z,100198.69
2023-04-11T06:25:56.045Z,100216.97
2023-04-11T06:29:59.065Z,100225.56
2023-04-11T06:34:02.443Z,100241.94
2023-04-11T06:38:06.860Z,100231.88
2023-04-11T06:42:10.107Z,100226.81
2023-04-11T06:46:16.274Z,100222.41
2023-04-11T06:50:19.393Z,100234.38
2023-04-11T06:54:24.087Z,100238.56
2023-04-11T06:58:27.147Z,100237.31
2023-04-11T07:02:30.316Z,100237.69
2023-04-11T07:06:35.352Z,100241.88
2023-04-11T07:10:39.640Z,100243.13
2023-04-11T07:14:42.602Z,100230.94
2023-04-11T07:18:45.711Z,100252.81
2023-04-11T07:22:48.689Z,100242.69
2023-04-11T07:26:53.835Z,100250.03
2023-04-11T07:30:57.848Z,100245.63
2023-04-11T07:35:01.196Z,100242.66
2023-04-11T07:39:09.235Z,100246.16
2023-04-11T07:43:13.790Z,100226.97
2023-04-11T07:47:16.868Z,100238.59
2023-04-11T07:51:19.885Z,100245.16
2023-04-11T07:55:22.901Z,100240.22
2023-04-11T07:59:27.246Z,100251.22
2023-04-11T08:03:30.576Z,100260.34
2023-04-11T08:07:33.875Z,100272.75
2023-04-11T08:11:36.892Z,100271.13
2023-04-11T08:15:41.350Z,100273.22
2023-04-11T08:19:44.662Z,100263.16
2023-04-11T08:23:47.965Z,100273.09
2023-04-11T08:27:51.123Z,100294.53
2023-04-11T08:31:56.069Z,100293.91
2023-04-11T08:35:59.476Z,100310.28
2023-04-11T08:40:06.784Z,100283.00
2023-04-11T08:44:11.923Z,100297.19
2023-04-11T08:48:16.323Z,100301.69
2023-04-11T08:52:20.337Z,100299.63
2023-04-11T08:56:23.356Z,100306.41
2023-04-11T09:00:29.118Z,100313.16
2023-04-11T09:04:41.659Z,100290.84
2023-04-11T09:08:44.797Z,100293.13
2023-04-11T09:12:47.932Z,100328.44
2023-04-11T09:16:56.150Z,100307.34
2023-04-11T09:21:02.381Z,100311.34
2023-04-11T09:25:06.192Z,100316.16
2023-04-11T09:29:09.560Z,100323.47
2023-04-11T09:33:23.561Z,100314.78
2023-04-11T09:37:28.131Z,100321.91
2023-04-11T09:41:32.465Z,100333.22
2023-04-11T09:45:44.140Z,100324.53
2023-04-11T09:49:52.885Z,100334.72
2023-04-11T09:53:59.155Z,100348.47
2023-04-11T09:58:02.720Z,100342.34
2023-04-11T10:02:05.943Z,100341.22
2023-04-11T10:06:13.048Z,100342.78
2023-04-11T10:10:22.771Z,100356.41
2023-04-11T10:14:46.783Z,100339.28
2023-04-11T10:19:24.207Z,100349.66
2023-04-11T10:23:27.226Z,100368.41
2023-04-11T10:27:53.569Z,100369.75
2023-04-11T10:32:09.533Z,100341.28
2023-04-11T10:36:13.151Z,100364.16
2023-04-11T10:40:16.933Z,100340.66
2023-04-11T10:44:22.621Z,100348.69
2023-04-11T10:48:25.743Z,100330.06
2023-04-11T10:52:28.892Z,100327.78
2023-04-11T10:56:54.977Z,100337.03
2023-04-11T11:01:31.464Z,100317.81
2023-04-11T11:05:41.522Z,100330.41
2023-04-11T11:09:49.413Z,100350.66
2023-04-11T11:13:54.088Z,100342.00
2023-04-11T11:17:59.454Z,100333.97
2023-04-11T11:22:04.285Z,100329.22
2023-04-11T11:26:07.491Z,100333.16
2023-04-11T11:30:14.619Z,100339.22
2023-04-11T11:34:29.182Z,100334.84
2023-04-11T11:38:32.778Z,100345.41
2023-04-11T11:42:37.088Z,100338.53
2023-04-11T11:46:40.382Z,100344.13
2023-04-11T11:50:44.909Z,100323.13
2023-04-11T11:54:48.308Z,100342.13
2023-04-11T11:58:51.402Z,100321.53
2023-04-11T12:02:56.344Z,100323.50
2023-04-11T12:07:09.204Z,100319.81
2023-04-11T12:11:15.523Z,100322.78
2023-04-11T12:15:20.370Z,100340.34
2023-04-11T12:19:23.470Z,100337.06
2023-04-11T12:23:28.156Z,100340.94
2023-04-11T12:27:33.115Z,100327.56
2023-04-11T12:31:36.291Z,100330.59
2023-04-11T12:35:39.357Z,100347.50
2023-04-11T12:39:43.731Z,100353.41
2023-04-11T12:43:46.658Z,100349.66
2023-04-11T12:47:49.682Z,100341.97
2023-04-11T12:51:52.606Z,100341.22
2023-04-11T12:55:56.935Z,100346.78
2023-04-11T13:00:00.256Z,100340.13
2023-04-11T13:04:03.618Z,100335.53
2023-04-11T13:08:06.764Z,100363.47
2023-04-11T13:12:11.138Z,100354.81
2023-04-11T13:16:14.115Z,100341.94
2023-04-11T13:20:17.516Z,100333.81
2023-04-11T13:24:20.540Z,100335.97
2023-04-11T13:28:25.044Z,100343.38
2023-04-11T13:32:28.061Z,100337.78
2023-04-11T13:36:32.355Z,100339.78
2023-04-11T13:40:35.916Z,100349.53
2023-04-11T13:44:40.650Z,100349.72
2023-04-11T13:48:43.651Z,100337.59
2023-04-11T13:52:46.675Z,100348.16
2023-04-11T13:56:49.803Z,100334.03
2023-04-11T14:00:54.269Z,100349.00
2023-04-11T14:04:58.231Z,100373.38
2023-04-11T14:09:01.250Z,100382.72
2023-04-11T14:13:05.483Z,100365.56
2023-04-11T14:17:09.906Z,100360.59
2023-04-11T14:21:13.121Z,100343.06
2023-04-11T14:25:16.656Z,100342.47
2023-04-11T14:29:20.984Z,100334.47
2023-04-11T14:33:27.297Z,100338.69
2023-04-11T14:37:30.500Z,100322.13
2023-04-11T14:41:33.650Z,100319.16
2023-04-11T14:45:37.032Z,100314.81
2023-04-11T14:49:41.434Z,100300.38
2023-04-11T14:53:44.515Z,100309.75
2023-04-11T14:57:48.718Z,100302.06
2023-04-11T15:01:51.855Z,100298.78
2023-04-11T15:05:56.725Z,100305.19
2023-04-11T15:09:59.723Z,100301.00
2023-04-11T15:14:02.944Z,100284.25
2023-04-11T15:18:25.967Z,100284.25
2023-04-11T15:22:30.446Z,100287.25
2023-04-11T15:26:33.485Z,100272.34
2023-04-11T15:30:46.256Z,100282.13
2023-04-11T15:34:50.788Z,100274.97
2023-04-11T15:38:55.644Z,100272.97
2023-04-11T15:42:58.643Z,100268.16
2023-04-11T15:47:01.801Z,100268.97
2023-04-11T15:51:09.741Z,100262.59
2023-04-11T15:55:14.228Z,100261.44
2023-04-11T15:59:17.257Z,100258.84
2023-04-11T16:03:20.719Z,100257.81
2023-04-11T16:07:23.948Z,100248.84
2023-04-11T16:11:28.321Z,100246.47
2023-04-11T16:15:31.438Z,100254.44
2023-04-11T16:19:34.567Z,100240.72
2023-04-11T16:23:37.897Z,100234.59
2023-04-11T16:27:42.313Z,100218.28
2023-04-11T16:31:45.367Z,100224.13
2023-04-11T16:35:48.412Z,100221.13
2023-04-11T16:39:51.943Z,100224.09
2023-04-11T16:43:56.736Z,100207.53
2023-04-11T16:48:00.503Z,100209.19
2023-04-11T16:52:03.662Z,100209.06
2023-04-11T16:56:07.710Z,100201.47
2023-04-11T17:00:20.701Z,100203.44
2023-04-11T17:04:23.917Z,100198.53
2023-04-11T17:08:27.042Z,100188.06
2023-04-11T17:12:31.653Z,100187.47
2023-04-11T17:16:36.214Z,100195.72
2023-04-11T17:20:39.354Z,100186.97
2023-04-11T17:24:42.599Z,100191.19
2023-04-11T17:28:45.829Z,100186.63
2023-04-11T17:32:50.293Z,100171.69
2023-04-11T17:36:53.538Z,100158.44
2023-04-11T17:41:00.247Z,100156.25
2023-04-11T17:45:17.830Z,100151.94
2023-04-11T17:49:24.966Z,100153.47
2023-04-11T17:53:28.373Z,100151.25
2023-04-11T17:57:31.399Z,100145.25
2023-04-11T18:01:34.627Z,100147.84
2023-04-11T18:05:39.500Z,100143.25
2023-04-11T18:09:43.239Z,100140.72
2023-04-11T18:13:49.322Z,100139.75
2023-04-11T18:17:53.855Z,100138.31
2023-04-11T18:21:58.293Z,100136.69
2023-04-11T18:26:01.316Z,100135.00
2023-04-11T18:30:06.584Z,100138.66
2023-04-11T18:34:09.972Z,100142.47
2023-04-11T18:38:14.565Z,100121.47
2023-04-11T18:42:17.702Z,100122.59
2023-04-11T18:46:20.826Z,100118.84
2023-04-11T18:50:24.011Z,100111.34
2023-04-11T18:54:28.413Z,100110.88
2023-04-11T18:58:34.304Z,100111.72
2023-04-11T19:02:38.452Z,100104.94
2023-04-11T19:06:42.797Z,100113.09
2023-04-11T19:10:47.237Z,100109.88
2023-04-11T19:14:50.892Z,100103.13
2023-04-11T19:18:53.933Z,100089.19
2023-04-11T19:22:57.258Z,100093.91
2023-04-11T19:27:02.357Z,100092.25
2023-04-11T19:31:05.740Z,100090.19
2023-04-11T19:35:11.525Z,100092.31
2023-04-11T19:39:14.678Z,100078.84
2023-04-11T19:43:19.787Z,100073.84
2023-04-11T19:47:23.001Z,100070.50
2023-04-11T19:51:26.317Z,100061.69
2023-04-11T19:55:29.413Z,100059.16
2023-04-11T19:59:33.886Z,100043.56
2023-04-11T20:03:36.984Z,100049.50
2023-04-11T20:07:40.375Z,100047.38
2023-04-11T20:11:47.058Z,100033.50
2023-04-11T20:15:51.581Z,100021.63
2023-04-11T20:19:55.920Z,100009.00
2023-04-11T20:24:00.316Z,100003.38
2023-04-11T20:28:03.526Z,100010.25
2023-04-11T20:32:08.584Z,99991.31
2023-04-11T20:36:11.818Z,99990.94
2023-04-11T20:40:14.933Z,99986.53
2023-04-11T20:44:21.127Z,99980.34
2023-04-11T20:48:26.019Z,99953.44
2023-04-11T20:52:29.774Z,99955.34
2023-04-11T20:56:35.505Z,99948.81
2023-04-11T21:00:40.565Z,99940.28
2023-04-11T21:04:46.497Z,99934.97
2023-04-11T21:08:49.604Z,99928.59
2023-04-11T21:12:53.991Z,99913.09
2023-04-11T21:16:57.477Z,99892.97
2023-04-11T21:21:01.904Z,99888.59
2023-04-11T21:25:05.549Z,99882.97
2023-04-11T21:29:10.394Z,99874.56
2023-04-11T21:33:13.974Z,99878.38
2023-04-11T21:37:18.397Z,99864.28
2023-04-11T21:41:21.387Z,99862.63
2023-04-11T21:45:24.525Z,99860.75
2023-04-11T21:49:27.515Z,99855.63
2023-04-11T21:53:31.880Z,99851.00
2023-04-11T21:57:34.888Z,99846.50
2023-04-11T22:01:38.010Z,99854.50
2023-04-11T22:05:42.047Z,99839.97
2023-04-11T22:09:47.265Z,99845.00
2023-04-11T22:13:52.493Z,99838.59
2023-04-11T22:17:56.691Z,99831.00
2023-04-11T22:22:03.639Z,99834.34
2023-04-11T22:26:08.443Z,99835.66
2023-04-11T22:30:14.354Z,99831.84
2023-04-11T22:34:17.400Z,99823.41
2023-04-11T22:38:21.579Z,99813.38
2023-04-11T22:42:26.028Z,99807.28
2023-04-11T22:46:31.685Z,99810.94
2023-04-11T22:50:37.300Z,99801.22
2023-04-11T22:54:40.443Z,99787.09
2023-04-11T22:58:46.060Z,99784.41
2023-04-11T23:02:49.139Z,99774.69
2023-04-11T23:06:53.675Z,99771.63
2023-04-11T23:10:57.407Z,99774.19
2023-04-11T23:15:02.574Z,99764.63
2023-04-11T23:19:05.948Z,99758.56
2023-04-11T23:23:09.356Z,99740.94
2023-04-11T23:27:12.913Z,99740.63
2023-04-11T23:31:17.829Z,99729.41
2023-04-11T23:35:21.091Z,99728.19
2023-04-11T23:39:24.169Z,99711.78
2023-04-11T23:43:27.192Z,99704.66
2023-04-11T23:47:31.553Z,99706.78
2023-04-11T23:51:34.598Z,99700.09
2023-04-11T23:55:40.219Z,99694.28
2023-04-11T23:59:43.407Z,99692.19
